createdAt,value
2022-09-14T00:08:39.497Z,1012.41
2022-09-14T00:23:56.419Z,1012.39
2022-09-14T00:39:12.428Z,1012.53
2022-09-14T00:54:28.398Z,1012.56
2022-09-14T01:09:44.364Z,1012.65
2022-09-14T01:25:01.312Z,1012.6
2022-09-14T01:40:18.364Z,1012.57
2022-09-14T01:55:35.253Z,1012.69
2022-09-14T02:10:51.236Z,1012.47
2022-09-14T02:26:08.176Z,1012.45
2022-09-14T02:41:24.166Z,1012.4
2022-09-14T02:56:40.108Z,1012.35
2022-09-14T03:11:57.122Z,1011.94
2022-09-14T03:27:15.084Z,1012.05
2022-09-14T03:42:32.051Z,1012.07
2022-09-14T03:57:47.992Z,1012.21
2022-09-14T04:13:03.988Z,1012.11
2022-09-14T04:28:21.070Z,1011.97
2022-09-14T04:43:36.920Z,1012.15
2022-09-14T04:58:52.861Z,1012.32
2022-09-14T05:14:09.866Z,1012.44
2022-09-14T05:29:27.832Z,1012.81
2022-09-14T05:44:44.811Z,1013.18
2022-09-14T06:00:00.774Z,1013.81
2022-09-14T06:15:16.703Z,1014.08
2022-09-14T06:30:33.700Z,1014.7
2022-09-14T06:45:49.639Z,1015.14
2022-09-14T07:01:05.708Z,1015.01
2022-09-14T07:16:22.587Z,1014.15
2022-09-14T07:31:40.595Z,1013.79
2022-09-14T07:46:57.529Z,1013.85
2022-09-14T08:02:13.651Z,1013.79
2022-09-14T08:17:29.455Z,1013.58
2022-09-14T08:32:46.429Z,1013.3
2022-09-14T08:48:02.405Z,1013.35
2022-09-14T09:03:19.376Z,1013.21
2022-09-14T09:18:36.339Z,1013.24
2022-09-14T09:33:53.307Z,1012.87
2022-09-14T09:49:09.279Z,1012.59
2022-09-14T10:04:25.246Z,1012.31
2022-09-14T10:19:41.209Z,1012.19
2022-09-14T10:34:58.180Z,1012
2022-09-14T10:50:14.174Z,1011.75
2022-09-14T11:05:31.113Z,1011.69
2022-09-14T11:20:48.100Z,1011.98
2022-09-14T11:36:05.045Z,1011.93
2022-09-14T11:51:21.048Z,1011.56
2022-09-14T12:06:36.991Z,1011.27
2022-09-14T12:21:52.978Z,1011.35
2022-09-14T12:37:12.129Z,1011.33
2022-09-14T12:52:25.907Z,1011.32
2022-09-14T13:07:42.871Z,1011.08
2022-09-14T13:22:59.848Z,1011.29
2022-09-14T13:38:16.813Z,1011.05
2022-09-14T13:53:32.779Z,1010.95
2022-09-14T14:08:48.845Z,1010.79
2022-09-14T14:24:13.119Z,1010.85
2022-09-14T14:39:21.675Z,1010.42
2022-09-14T14:54:38.656Z,1010.58
2022-09-14T15:09:55.616Z,1010.41
2022-09-14T15:25:29.984Z,1010.31
2022-09-14T15:40:30.597Z,1010.23
2022-09-14T15:55:46.496Z,1010.21
2022-09-14T15:56:27.368Z,1010.21
2022-09-14T16:11:03.493Z,1010.44
2022-09-14T16:26:35.243Z,1010.45
2022-09-14T16:41:33.429Z,1010.29
2022-09-14T16:56:50.354Z,1010.29
2022-09-14T17:12:07.357Z,1010.21
2022-09-14T17:27:24.299Z,1010.11
2022-09-14T17:42:40.295Z,1010.11
2022-09-14T17:57:56.233Z,1010.08
2022-09-14T18:13:12.230Z,1010.36
2022-09-14T18:28:29.166Z,1010.03
2022-09-14T18:43:46.176Z,1010.22
2022-09-14T18:59:03.132Z,1010.44
2022-09-14T19:14:20.097Z,1010.41
2022-09-14T19:29:37.032Z,1010.21
2022-09-14T19:44:53.037Z,1010.76
2022-09-14T20:00:09.016Z,1011.29
2022-09-14T20:15:24.946Z,1011.61
2022-09-14T20:30:41.962Z,1012.21
2022-09-14T20:45:58.908Z,1012.67
2022-09-14T21:01:15.933Z,1013.26
2022-09-14T21:16:31.817Z,1014.63
2022-09-14T21:31:48.945Z,1015.05
2022-09-14T21:47:04.764Z,1015.92
2022-09-14T22:02:20.781Z,1016.01
2022-09-14T22:17:36.704Z,1016.04
2022-09-14T22:32:53.675Z,1015.83
2022-09-14T22:48:10.640Z,1015.42
2022-09-14T23:03:27.619Z,1015.27
2022-09-14T23:18:43.583Z,1015.24
2022-09-14T23:34:00.552Z,1015.22
2022-09-14T23:49:16.526Z,1015.54
